createdAt,value
2023-05-10T00:01:18.765Z,18.17
2023-05-10T00:06:21.396Z,17.33
2023-05-10T00:11:23.935Z,12.68
2023-05-10T00:16:26.489Z,11.57
2023-05-10T00:21:29.450Z,8.98
2023-05-10T00:26:31.961Z,6.75
2023-05-10T00:31:34.919Z,18.70
2023-05-10T00:36:37.800Z,7.93
2023-05-10T00:41:40.506Z,10.60
2023-05-10T00:46:43.869Z,9.75
2023-05-10T00:51:46.637Z,16.50
2023-05-10T00:56:50.441Z,8.20
2023-05-10T01:01:53.132Z,7.07
2023-05-10T01:06:55.821Z,10.77
2023-05-10T01:11:58.377Z,9.07
2023-05-10T01:17:01.810Z,22.40
2023-05-10T01:22:14.902Z,22.58
2023-05-10T01:27:39.024Z,13.43
2023-05-10T01:33:17.974Z,12.07
2023-05-10T01:38:41.637Z,15.43
2023-05-10T01:44:24.981Z,9.55
2023-05-10T01:49:31.119Z,7.20
2023-05-10T01:54:36.448Z,10.55
2023-05-10T01:59:44.414Z,9.07
2023-05-10T02:04:47.448Z,12.90
2023-05-10T02:09:50.802Z,8.23
2023-05-10T02:14:54.884Z,12.00
2023-05-10T02:19:58.554Z,7.20
2023-05-10T02:25:03.013Z,6.60
2023-05-10T02:30:07.906Z,9.55
2023-05-10T02:35:12.097Z,11.63
2023-05-10T02:40:16.007Z,6.80
2023-05-10T02:45:24.718Z,8.05
2023-05-10T02:50:30.050Z,11.38
2023-05-10T02:55:38.385Z,9.77
2023-05-10T03:00:41.047Z,8.57
2023-05-10T03:05:43.899Z,9.23
2023-05-10T03:11:22.127Z,7.90
2023-05-10T03:16:36.826Z,5.80
2023-05-10T03:21:46.098Z,8.00
2023-05-10T03:26:50.013Z,7.50
2023-05-10T03:31:54.368Z,10.07
2023-05-10T03:36:57.143Z,10.88
2023-05-10T03:42:01.235Z,10.50
2023-05-10T03:47:04.074Z,12.27
2023-05-10T03:52:06.800Z,11.57
2023-05-10T03:57:09.421Z,12.65
2023-05-10T04:02:12.267Z,10.65
2023-05-10T04:07:15.209Z,8.68
2023-05-10T04:12:18.017Z,9.73
2023-05-10T04:17:20.604Z,8.10
2023-05-10T04:22:23.212Z,7.80
2023-05-10T04:27:25.772Z,7.70
2023-05-10T04:32:28.290Z,5.65
2023-05-10T04:37:30.952Z,5.82
2023-05-10T04:42:33.746Z,3.65
2023-05-10T04:47:36.302Z,9.02
2023-05-10T04:52:38.786Z,6.80
2023-05-10T04:57:41.355Z,4.25
2023-05-10T05:02:47.490Z,6.47
2023-05-10T05:07:50.129Z,6.40
2023-05-10T05:12:52.669Z,5.93
2023-05-10T05:17:55.595Z,7.35
2023-05-10T05:22:58.112Z,5.88
2023-05-10T05:28:00.623Z,3.85
2023-05-10T05:33:03.240Z,6.07
2023-05-10T05:38:06.242Z,6.60
2023-05-10T05:43:08.710Z,9.57
2023-05-10T05:48:11.426Z,3.95
2023-05-10T05:53:14.257Z,8.02
2023-05-10T05:58:16.792Z,4.07
2023-05-10T06:03:20.049Z,9.95
2023-05-10T06:08:23.476Z,8.38
2023-05-10T06:13:26.024Z,4.65
2023-05-10T06:18:28.532Z,4.68
2023-05-10T06:23:30.973Z,4.50
2023-05-10T06:28:34.571Z,18.33
2023-05-10T06:33:37.068Z,3.50
2023-05-10T06:38:39.510Z,7.18
2023-05-10T06:43:42.491Z,7.88
2023-05-10T06:48:45.637Z,12.75
2023-05-10T06:53:48.380Z,5.95
2023-05-10T06:58:50.897Z,4.80
2023-05-10T07:03:53.529Z,6.30
2023-05-10T07:08:56.558Z,7.50
2023-05-10T07:13:59.067Z,7.63
2023-05-10T07:19:01.609Z,6.85
2023-05-10T07:24:04.149Z,8.02
2023-05-10T07:29:06.886Z,4.47
2023-05-10T07:34:09.889Z,4.95
2023-05-10T07:39:16.261Z,7.13
2023-05-10T07:44:24.090Z,3.90
2023-05-10T07:49:27.358Z,4.05
2023-05-10T07:54:29.925Z,8.82
2023-05-10T07:59:34.077Z,6.00
2023-05-10T08:04:36.616Z,6.60
2023-05-10T08:09:39.232Z,2.97
2023-05-10T08:14:42.070Z,4.57
2023-05-10T08:19:44.530Z,4.55
2023-05-10T08:24:47.167Z,3.83
2023-05-10T08:29:50.655Z,10.77
2023-05-10T08:34:53.300Z,5.60
2023-05-10T08:39:55.715Z,4.25
2023-05-10T08:45:00.278Z,3.65
2023-05-10T08:50:05.123Z,6.50
2023-05-10T08:55:08.293Z,5.78
2023-05-10T09:00:12.685Z,2.95
2023-05-10T09:05:17.164Z,5.78
2023-05-10T09:10:20.712Z,3.38
2023-05-10T09:15:23.422Z,4.53
2023-05-10T09:20:25.960Z,4.32
2023-05-10T09:25:28.843Z,2.17
2023-05-10T09:30:32.525Z,3.60
2023-05-10T09:35:35.364Z,5.78
2023-05-10T09:40:38.075Z,6.07
2023-05-10T09:45:43.000Z,4.97
2023-05-10T09:50:45.654Z,6.32
2023-05-10T09:55:50.338Z,2.85
2023-05-10T10:00:53.387Z,5.28
2023-05-10T10:05:57.033Z,3.13
2023-05-10T10:11:00.306Z,4.60
2023-05-10T10:16:03.075Z,3.80
2023-05-10T10:21:09.742Z,4.50
2023-05-10T10:26:12.496Z,5.95
2023-05-10T10:31:28.064Z,2.42
2023-05-10T10:36:31.385Z,2.20
2023-05-10T10:41:51.597Z,8.60
2023-05-10T10:47:13.277Z,2.28
2023-05-10T10:52:24.889Z,4.00
2023-05-10T10:57:28.505Z,5.32
2023-05-10T11:02:47.210Z,3.85
2023-05-10T11:08:01.337Z,1.83
2023-05-10T11:13:09.386Z,5.70
2023-05-10T11:18:29.993Z,4.68
2023-05-10T11:23:41.426Z,3.63
2023-05-10T11:28:48.396Z,6.15
2023-05-10T11:33:54.634Z,1.88
2023-05-10T11:38:58.409Z,3.38
2023-05-10T11:44:01.115Z,6.75
2023-05-10T11:49:07.930Z,10.88
2023-05-10T11:54:12.541Z,3.75
2023-05-10T11:59:16.262Z,4.25
2023-05-10T12:04:19.080Z,3.92
2023-05-10T12:09:35.531Z,4.18
2023-05-10T12:14:42.601Z,4.20
2023-05-10T12:19:45.125Z,4.13
2023-05-10T12:24:47.573Z,5.45
2023-05-10T12:29:50.778Z,4.90
2023-05-10T12:34:54.450Z,9.20
2023-05-10T12:39:56.936Z,4.57
2023-05-10T12:44:59.499Z,3.75
2023-05-10T12:50:03.744Z,2.15
2023-05-10T12:55:06.488Z,2.03
2023-05-10T13:00:10.095Z,5.20
2023-05-10T13:05:14.276Z,2.63
2023-05-10T13:10:17.367Z,3.23
2023-05-10T13:15:40.451Z,2.47
2023-05-10T13:20:44.150Z,5.07
2023-05-10T13:25:46.602Z,1.63
2023-05-10T13:30:49.073Z,7.00
2023-05-10T13:35:51.993Z,5.43
2023-05-10T13:40:55.690Z,3.27
2023-05-10T13:45:58.518Z,2.25
2023-05-10T13:51:01.011Z,12.10
2023-05-10T13:56:03.942Z,9.15
2023-05-10T14:01:06.531Z,9.10
2023-05-10T14:06:10.234Z,5.20
2023-05-10T14:11:12.781Z,3.03
2023-05-10T14:16:16.021Z,2.50
2023-05-10T14:21:18.578Z,4.35
2023-05-10T14:26:21.779Z,8.45
2023-05-10T14:36:42.554Z,3.17
2023-05-10T14:41:46.726Z,4.05
2023-05-10T14:46:49.805Z,5.37
2023-05-10T14:51:52.629Z,3.22
2023-05-10T14:56:55.102Z,10.85
2023-05-10T15:01:57.535Z,7.15
2023-05-10T15:07:01.026Z,2.35
2023-05-10T15:12:03.510Z,2.80
2023-05-10T15:17:08.798Z,3.85
2023-05-10T15:22:11.421Z,5.65
2023-05-10T15:27:13.930Z,7.35
2023-05-10T15:32:16.455Z,5.63
2023-05-10T15:37:19.387Z,8.65
2023-05-10T15:42:21.949Z,3.70
2023-05-10T15:47:25.507Z,2.50
2023-05-10T15:52:28.292Z,4.00
2023-05-10T15:57:31.268Z,5.53
2023-05-10T16:02:34.095Z,6.75
2023-05-10T16:07:36.791Z,4.43
2023-05-10T16:12:40.094Z,13.32
2023-05-10T16:17:43.100Z,2.92
2023-05-10T16:22:45.618Z,3.90
2023-05-10T16:27:48.152Z,7.50
2023-05-10T16:32:51.003Z,7.32
2023-05-10T16:37:53.916Z,5.57
2023-05-10T16:42:56.842Z,5.03
2023-05-10T16:47:59.412Z,5.18
2023-05-10T16:53:02.166Z,5.22
2023-05-10T16:58:04.649Z,2.88
2023-05-10T17:03:07.254Z,4.00
2023-05-10T17:08:10.408Z,3.95
2023-05-10T17:13:13.150Z,4.75
2023-05-10T17:18:15.648Z,6.07
2023-05-10T17:23:18.185Z,7.53
2023-05-10T17:28:20.682Z,3.78
2023-05-10T17:33:23.135Z,8.75
2023-05-10T17:38:25.652Z,7.40
2023-05-10T17:43:28.113Z,3.53
2023-05-10T17:48:31.011Z,4.10
2023-05-10T17:53:35.352Z,5.13
2023-05-10T17:58:38.472Z,13.35
2023-05-10T18:03:41.062Z,3.88
2023-05-10T18:08:44.920Z,5.07
2023-05-10T18:13:47.450Z,11.02
2023-05-10T18:18:50.078Z,8.20
2023-05-10T18:23:52.517Z,9.10
2023-05-10T18:28:55.201Z,4.57
2023-05-10T18:33:57.891Z,3.80
2023-05-10T18:39:00.384Z,7.65
2023-05-10T18:44:03.382Z,10.57
2023-05-10T18:49:06.661Z,6.97
2023-05-10T18:54:09.194Z,6.55
2023-05-10T18:59:12.990Z,2.72
2023-05-10T19:04:15.546Z,5.35
2023-05-10T19:09:20.193Z,5.78
2023-05-10T19:14:25.216Z,10.30
2023-05-10T19:19:30.871Z,9.32
2023-05-10T19:24:34.742Z,7.75
2023-05-10T19:29:37.247Z,12.68
2023-05-10T19:34:39.782Z,7.25
2023-05-10T19:39:42.297Z,8.45
2023-05-10T19:44:44.859Z,8.13
2023-05-10T19:49:47.497Z,13.32
2023-05-10T19:54:50.143Z,6.07
2023-05-10T19:59:53.023Z,13.73
2023-05-10T20:04:55.764Z,8.60
2023-05-10T20:09:58.286Z,9.95
2023-05-10T20:15:00.700Z,11.50
2023-05-10T20:20:03.962Z,9.45
2023-05-10T20:25:07.582Z,13.55
2023-05-10T20:30:11.013Z,8.85
2023-05-10T20:35:13.628Z,8.82
2023-05-10T20:40:16.739Z,11.13
2023-05-10T20:45:19.769Z,15.13
2023-05-10T20:50:22.371Z,12.35
2023-05-10T20:55:24.963Z,12.00
2023-05-10T21:00:27.540Z,9.15
2023-05-10T21:05:30.808Z,13.57
2023-05-10T21:10:33.579Z,13.75
2023-05-10T21:15:36.388Z,15.40
2023-05-10T21:20:38.960Z,18.30
2023-05-10T21:25:41.433Z,13.07
2023-05-10T21:30:44.049Z,20.30
2023-05-10T21:35:46.591Z,19.20
2023-05-10T21:40:49.118Z,19.70
2023-05-10T21:45:51.648Z,20.15
2023-05-10T21:50:54.139Z,22.85
2023-05-10T21:55:57.022Z,25.75
2023-05-10T22:00:59.583Z,27.13
2023-05-10T22:06:02.123Z,21.73
2023-05-10T22:11:04.875Z,17.92
2023-05-10T22:16:07.391Z,21.73
2023-05-10T22:21:10.709Z,22.63
2023-05-10T22:26:13.363Z,22.73
2023-05-10T22:31:16.065Z,17.10
2023-05-10T22:36:18.739Z,16.00
2023-05-10T22:41:23.265Z,17.25
2023-05-10T22:46:25.902Z,27.63
2023-05-10T22:51:28.785Z,17.55
2023-05-10T22:56:32.101Z,17.27
2023-05-10T23:01:34.738Z,13.77
2023-05-10T23:06:37.325Z,13.95
2023-05-10T23:11:39.796Z,13.98
2023-05-10T23:16:42.561Z,13.40
2023-05-10T23:21:46.790Z,12.90
2023-05-10T23:26:52.206Z,15.53
2023-05-10T23:31:54.777Z,11.35
2023-05-10T23:36:57.257Z,13.15
2023-05-10T23:41:59.849Z,11.73
2023-05-10T23:47:02.474Z,11.18
2023-05-10T23:52:05.368Z,8.75
2023-05-10T23:57:07.915Z,15.57
